Time;durP1;ratioP1;P1;durP2;ratioP2;P2;SDS_P1;SDS_P2;PMS_P1;PMS_P2;Temp;Humidity;BMP_temperature;BMP_pressure;BME280_temperature;BME280_humidity;BME280_pressure;Samples;Min_cycle;Max_cycle;Signal;HPM_P1;HPM_P2
2022/05/02 00:00:30;;;;;;;14.93;12.30;;;9.90;99.90;;;;;;5053172;28;20040;-79
2022/05/02 00:02:56;;;;;;;12.50;11.30;;;9.90;99.90;;;;;;5034714;28;20334;-79
2022/05/02 00:05:21;;;;;;;14.27;12.77;;;9.90;99.90;;;;;;5053240;28;20025;-79
2022/05/02 00:07:47;;;;;;;13.60;12.07;;;9.80;99.90;;;;;;5053123;28;20022;-79
2022/05/02 00:10:13;;;;;;;17.15;12.57;;;9.80;99.90;;;;;;5051597;28;20021;-79
2022/05/02 00:12:40;;;;;;;12.18;11.13;;;9.80;99.90;;;;;;5056252;28;20082;-79
2022/05/02 00:15:07;;;;;;;12.65;11.30;;;9.80;99.90;;;;;;5055427;28;20017;-79
2022/05/02 00:20:17;;;;;;;14.02;12.20;;;9.70;99.90;;;;;;5051241;28;20401;-79
2022/05/02 00:22:42;;;;;;;14.05;12.75;;;9.70;99.90;;;;;;5053180;28;20025;-78
2022/05/02 00:25:08;;;;;;;14.20;12.93;;;9.80;99.90;;;;;;5053579;28;20121;-79
2022/05/02 00:27:34;;;;;;;14.38;12.52;;;9.80;99.90;;;;;;5054080;28;20067;-79
2022/05/02 00:30:00;;;;;;;13.63;11.88;;;9.80;99.90;;;;;;5056015;28;20024;-79
2022/05/02 00:32:26;;;;;;;14.52;13.02;;;9.80;99.90;;;;;;5051176;28;20021;-79
2022/05/02 00:34:51;;;;;;;12.85;11.68;;;9.80;99.90;;;;;;5062845;28;20044;-79
2022/05/02 00:37:18;;;;;;;15.25;12.38;;;9.70;99.90;;;;;;5067739;28;20211;-80
2022/05/02 00:39:44;;;;;;;14.27;12.98;;;9.80;99.90;;;;;;5053786;28;20070;-77
2022/05/02 00:42:09;;;;;;;14.15;11.88;;;9.80;99.90;;;;;;5051224;28;20037;-78
2022/05/02 00:44:35;;;;;;;13.70;12.43;;;9.80;99.90;;;;;;5059091;28;20061;-78
2022/05/02 00:47:00;;;;;;;14.82;13.38;;;9.80;99.90;;;;;;5059983;28;20035;-78
2022/05/02 00:49:26;;;;;;;15.00;13.60;;;9.70;99.90;;;;;;5049549;28;20040;-79
2022/05/02 00:51:51;;;;;;;14.15;12.77;;;9.80;99.90;;;;;;5061725;28;20020;-80
2022/05/02 00:54:17;;;;;;;19.85;13.15;;;9.70;99.90;;;;;;5053452;28;20079;-78
2022/05/02 00:56:43;;;;;;;13.63;12.30;;;9.70;99.90;;;;;;5051456;28;20021;-78
2022/05/02 00:59:14;;;;;;;13.90;12.60;;;9.70;99.90;;;;;;5055138;28;20151;-78
2022/05/02 01:01:41;;;;;;;12.60;11.48;;;9.80;99.90;;;;;;5055092;28;20017;-79
2022/05/02 01:04:06;;;;;;;13.77;12.32;;;9.80;99.90;;;;;;5055992;28;20104;-78
2022/05/02 01:09:16;;;;;;;14.20;12.88;;;9.80;99.90;;;;;;5057111;28;20032;-78
2022/05/02 01:11:41;;;;;;;15.52;11.68;;;9.80;99.90;;;;;;5062129;28;20021;-79
2022/05/02 01:14:10;;;;;;;13.10;11.77;;;9.80;99.90;;;;;;5055263;28;20071;-78
2022/05/02 01:16:36;;;;;;;13.05;11.82;;;9.80;99.90;;;;;;5059606;28;20036;-78
2022/05/02 01:19:01;;;;;;;12.73;11.45;;;9.80;99.90;;;;;;5054815;28;20027;-78
2022/05/02 01:21:29;;;;;;;12.40;11.18;;;9.80;99.90;;;;;;5058946;28;20021;-78
2022/05/02 01:23:59;;;;;;;12.48;11.18;;;9.80;99.90;;;;;;5068192;28;20025;-78
2022/05/02 01:26:25;;;;;;;16.13;11.70;;;9.80;99.90;;;;;;5051246;28;20028;-79
2022/05/02 01:28:56;;;;;;;12.77;10.90;;;9.80;99.90;;;;;;5055398;28;20029;-78
2022/05/02 01:31:22;;;;;;;11.93;10.45;;;9.80;99.90;;;;;;5061530;28;20021;-78
2022/05/02 01:33:49;;;;;;;12.48;11.27;;;9.90;99.90;;;;;;5054803;28;20020;-78
2022/05/02 01:36:17;;;;;;;12.20;11.10;;;9.90;99.90;;;;;;5057165;28;20489;-78
2022/05/02 01:38:42;;;;;;;12.40;11.32;;;9.90;99.90;;;;;;5055455;28;20029;-79
2022/05/02 01:41:08;;;;;;;12.88;11.60;;;9.80;99.90;;;;;;5062941;28;20481;-79
2022/05/02 01:43:35;;;;;;;14.02;11.40;;;9.70;99.90;;;;;;5055138;28;20033;-79
2022/05/02 01:46:02;;;;;;;11.80;10.75;;;9.70;99.90;;;;;;5056872;28;20031;-79
2022/05/02 01:48:28;;;;;;;11.90;10.80;;;9.70;99.90;;;;;;5054904;28;20047;-79
2022/05/02 01:50:54;;;;;;;12.10;11.00;;;9.80;99.90;;;;;;5061920;28;20528;-79
2022/05/02 01:53:20;;;;;;;13.23;11.23;;;9.80;99.90;;;;;;5049560;28;20382;-79
2022/05/02 01:55:45;;;;;;;11.80;10.63;;;9.80;99.90;;;;;;5060250;28;20027;-79
2022/05/02 01:58:11;;;;;;;13.38;12.18;;;9.70;99.90;;;;;;5055717;28;20059;-79
2022/05/02 02:00:37;;;;;;;12.20;11.13;;;9.70;99.90;;;;;;5053599;28;20063;-77
2022/05/02 02:03:03;;;;;;;12.50;11.38;;;9.70;99.90;;;;;;5058785;28;20116;-78
2022/05/02 02:08:13;;;;;;;12.70;11.50;;;9.70;99.90;;;;;;5054212;28;20040;-79
2022/05/02 02:10:39;;;;;;;12.63;10.95;;;9.70;99.90;;;;;;5054429;28;20025;-78
2022/05/02 02:13:05;;;;;;;12.27;11.07;;;9.70;99.90;;;;;;5055605;28;20025;-78
2022/05/02 02:15:31;;;;;;;12.18;10.77;;;9.70;99.90;;;;;;5053110;28;20039;-78
2022/05/02 02:17:56;;;;;;;12.57;11.38;;;9.70;99.90;;;;;;5054809;28;20028;-79
2022/05/02 02:20:22;;;;;;;12.75;11.48;;;9.70;99.90;;;;;;5054101;28;20025;-78
2022/05/02 02:22:48;;;;;;;12.30;11.10;;;9.70;99.90;;;;;;5054177;28;20151;-79
2022/05/02 02:25:13;;;;;;;11.95;10.85;;;9.70;99.90;;;;;;5052740;28;20083;-78
2022/05/02 02:27:39;;;;;;;12.05;10.90;;;9.70;99.90;;;;;;5053970;28;20025;-78
2022/05/02 02:30:05;;;;;;;12.82;10.98;;;9.70;99.90;;;;;;5055604;28;20028;-77
2022/05/02 02:32:32;;;;;;;11.90;10.70;;;9.80;99.90;;;;;;5056317;28;20036;-79
2022/05/02 02:34:57;;;;;;;13.18;11.18;;;9.70;99.90;;;;;;5053293;28;20036;-78
2022/05/02 02:37:23;;;;;;;13.00;11.80;;;9.60;99.90;;;;;;5055732;28;20010;-78
2022/05/02 02:39:48;;;;;;;12.10;11.00;;;9.70;99.90;;;;;;5055936;28;20025;-78
2022/05/02 02:42:14;;;;;;;12.63;11.05;;;9.70;99.90;;;;;;5052931;28;20031;-78
2022/05/02 02:44:39;;;;;;;17.08;12.45;;;9.70;99.90;;;;;;5056096;28;20037;-78
2022/05/02 02:47:05;;;;;;;13.90;12.50;;;9.70;99.90;;;;;;5052906;28;20039;-78
2022/05/02 02:49:31;;;;;;;13.55;12.40;;;9.70;99.90;;;;;;5056023;28;20033;-79
2022/05/02 02:51:56;;;;;;;13.07;11.38;;;9.80;99.90;;;;;;5052647;28;20040;-78
2022/05/02 02:54:22;;;;;;;13.52;12.23;;;9.80;99.90;;;;;;5053432;28;20092;-79
2022/05/02 02:56:48;;;;;;;12.43;11.25;;;9.80;99.90;;;;;;5055772;28;20106;-79
2022/05/02 02:59:13;;;;;;;13.57;12.27;;;9.80;99.90;;;;;;5058258;28;20037;-79
2022/05/02 03:01:39;;;;;;;13.32;12.00;;;9.80;99.90;;;;;;5059786;28;20046;-79
2022/05/02 03:06:51;;;;;;;13.45;12.23;;;9.80;99.90;;;;;;5051159;28;20544;-78
2022/05/02 03:09:17;;;;;;;12.60;11.18;;;9.90;99.90;;;;;;5060600;28;20029;-79
2022/05/02 03:11:42;;;;;;;13.02;11.82;;;9.90;99.90;;;;;;5058099;28;20017;-78
2022/05/02 03:14:08;;;;;;;13.07;11.95;;;9.90;99.90;;;;;;5057951;28;20032;-78
2022/05/02 03:16:33;;;;;;;12.45;11.25;;;9.90;99.90;;;;;;5056073;28;20052;-78
2022/05/02 03:18:59;;;;;;;12.25;11.18;;;9.90;99.90;;;;;;5060284;28;20036;-79
2022/05/02 03:21:25;;;;;;;13.23;11.98;;;10.00;99.90;;;;;;5053091;28;20029;-77
2022/05/02 03:23:50;;;;;;;13.23;11.85;;;10.00;99.90;;;;;;5056498;28;20027;-79
2022/05/02 03:26:16;;;;;;;12.18;11.07;;;10.00;99.90;;;;;;5053808;28;20025;-78
2022/05/02 03:28:41;;;;;;;12.25;11.13;;;10.00;99.90;;;;;;5053994;28;20488;-78
2022/05/02 03:31:07;;;;;;;13.80;12.40;;;10.10;99.90;;;;;;5057724;28;20066;-77
2022/05/02 03:33:32;;;;;;;13.13;11.90;;;10.10;99.90;;;;;;5055431;28;20100;-78
2022/05/02 03:35:58;;;;;;;13.68;12.07;;;10.10;99.90;;;;;;5065236;28;20024;-77
2022/05/02 03:38:23;;;;;;;13.43;12.10;;;10.10;99.90;;;;;;5061271;28;20104;-78
2022/05/02 03:40:49;;;;;;;13.55;12.18;;;10.10;99.90;;;;;;5051810;28;20044;-80
2022/05/02 03:43:15;;;;;;;12.63;11.55;;;10.00;99.90;;;;;;5053661;28;20041;-79
2022/05/02 03:45:40;;;;;;;14.73;13.32;;;10.00;99.90;;;;;;5053984;28;20017;-80
2022/05/02 03:48:06;;;;;;;14.70;13.07;;;10.00;99.90;;;;;;5052620;28;20076;-79
2022/05/02 03:50:32;;;;;;;12.73;11.27;;;10.10;99.90;;;;;;5055184;28;20085;-79
2022/05/02 03:52:58;;;;;;;12.88;11.57;;;10.10;99.90;;;;;;5051948;28;20032;-78
2022/05/02 03:55:23;;;;;;;14.85;11.93;;;10.10;99.90;;;;;;5053177;28;20017;-79
2022/05/02 03:57:49;;;;;;;13.02;11.90;;;10.20;99.90;;;;;;5052756;28;20017;-79
2022/05/02 04:00:16;;;;;;;13.95;12.75;;;10.20;99.90;;;;;;5056470;28;20094;-78
2022/05/02 04:02:42;;;;;;;14.30;12.90;;;10.20;99.90;;;;;;5057055;28;20020;-79
2022/05/02 04:05:08;;;;;;;20.23;14.77;;;10.10;99.90;;;;;;5055952;28;20083;-78
2022/05/02 04:07:33;;;;;;;15.35;12.60;;;10.10;99.90;;;;;;5058162;28;20040;-78
2022/05/02 04:09:59;;;;;;;13.02;11.63;;;10.10;99.90;;;;;;5058242;28;20056;-77
2022/05/02 04:12:25;;;;;;;13.32;11.93;;;10.10;99.90;;;;;;5060957;28;20017;-79
2022/05/02 04:14:50;;;;;;;14.40;12.95;;;10.10;99.90;;;;;;5070841;28;20033;-76
2022/05/02 04:17:16;;;;;;;13.48;12.10;;;10.10;99.90;;;;;;5091852;28;20040;-76
2022/05/02 04:19:41;;;;;;;14.70;13.30;;;10.10;99.90;;;;;;5078839;28;20025;-75
2022/05/02 04:22:07;;;;;;;16.55;12.88;;;10.10;99.90;;;;;;5076400;28;20026;-76
2022/05/02 04:24:33;;;;;;;14.38;12.98;;;10.20;99.90;;;;;;5073235;28;20025;-77
2022/05/02 04:26:59;;;;;;;14.10;12.65;;;10.20;99.90;;;;;;5075419;28;20029;-77
2022/05/02 04:29:25;;;;;;;13.52;12.32;;;10.30;99.90;;;;;;5053727;28;20029;-78
2022/05/02 04:31:50;;;;;;;13.30;12.02;;;10.30;99.90;;;;;;5052850;28;20021;-78
2022/05/02 04:34:16;;;;;;;13.43;12.23;;;10.40;99.90;;;;;;5063628;28;20096;-78
2022/05/02 04:36:42;;;;;;;13.55;12.32;;;10.60;99.90;;;;;;5058912;28;20017;-79
2022/05/02 04:39:07;;;;;;;16.50;11.18;;;10.70;99.90;;;;;;5061851;28;20024;-79
2022/05/02 04:41:33;;;;;;;12.35;11.05;;;10.80;99.90;;;;;;5056708;28;20025;-78
2022/05/02 04:43:59;;;;;;;12.65;11.40;;;11.00;99.90;;;;;;5058752;28;20401;-80
2022/05/02 04:46:26;;;;;;;12.27;11.07;;;11.20;99.90;;;;;;5055533;28;20416;-79
2022/05/02 04:48:52;;;;;;;12.60;11.40;;;11.80;99.90;;;;;;5060456;28;20029;-79
2022/05/02 04:51:17;;;;;;;12.32;11.23;;;12.20;99.90;;;;;;5060829;28;20155;-78
2022/05/02 04:53:43;;;;;;;16.73;11.68;;;12.40;99.90;;;;;;5059016;28;20070;-79
2022/05/02 04:56:09;;;;;;;13.40;12.20;;;12.50;99.90;;;;;;5072468;28;20025;-81
2022/05/02 04:58:34;;;;;;;12.95;11.25;;;12.60;99.90;;;;;;5056921;28;20098;-80
2022/05/02 05:01:00;;;;;;;13.73;12.15;;;12.70;99.90;;;;;;5058198;28;20017;-79
2022/05/02 05:03:25;;;;;;;12.23;11.02;;;12.80;99.90;;;;;;5053740;28;20508;-80
2022/05/02 05:05:54;;;;;;;12.63;11.52;;;13.00;99.90;;;;;;5057036;28;20017;-78
2022/05/02 05:08:19;;;;;;;12.45;11.18;;;13.30;99.90;;;;;;5049239;28;20020;-79
2022/05/02 05:10:56;;;;;;;12.95;11.65;;;13.90;99.90;;;;;;5062468;28;20021;-79
2022/05/02 05:13:26;;;;;;;14.75;11.85;;;14.10;99.90;;;;;;5062181;28;20032;-79
2022/05/02 05:16:21;;;;;;;13.70;10.67;;;14.20;99.90;;;;;;5060360;28;20013;-77
2022/05/02 05:19:10;;;;;;;12.13;10.77;;;14.80;99.90;;;;;;5060095;28;20129;-79
2022/05/02 05:22:14;;;;;;;12.73;11.40;;;14.70;99.90;;;;;;5064278;28;20028;-80
2022/05/02 05:24:54;;;;;;;13.93;11.57;;;15.30;99.90;;;;;;5011937;28;20056;-79
2022/05/02 05:27:37;;;;;;;12.55;11.35;;;15.40;99.90;;;;;;5074184;28;20080;-79
2022/05/02 05:30:06;;;;;;;12.57;11.23;;;15.90;99.90;;;;;;5055900;28;20032;-78
2022/05/02 05:32:32;;;;;;;21.13;12.65;;;15.60;99.90;;;;;;5053893;28;20025;-80
2022/05/02 05:35:04;;;;;;;13.32;11.65;;;16.00;99.90;;;;;;5058609;28;20429;-80
2022/05/02 05:38:12;;;;;;;18.38;12.50;;;16.10;99.90;;;;;;5052734;28;20040;-78
2022/05/02 05:40:42;;;;;;;15.05;12.70;;;16.30;99.90;;;;;;5022543;28;20097;-79
2022/05/02 05:43:45;;;;;;;13.93;12.52;;;16.70;99.90;;;;;;5049731;28;20029;-79
2022/05/02 05:46:36;;;;;;;13.02;11.75;;;16.90;99.90;;;;;;5057807;28;20019;-80
2022/05/02 05:49:20;;;;;;;16.98;12.02;;;16.30;99.90;;;;;;5058807;28;20070;-79
2022/05/02 05:52:03;;;;;;;13.77;12.30;;;15.90;99.90;;;;;;5058129;28;20028;-79
2022/05/02 05:54:58;;;;;;;14.43;12.90;;;15.30;99.90;;;;;;5053285;28;20385;-79
2022/05/02 05:57:47;;;;;;;15.98;12.35;;;15.70;99.90;;;;;;5055311;28;20040;-80
2022/05/02 06:00:14;;;;;;;14.65;12.95;;;16.00;99.90;;;;;;5056907;28;20036;-80
2022/05/02 06:02:49;;;;;;;16.42;13.57;;;16.30;99.90;;;;;;5063032;28;20093;-79
2022/05/02 06:05:15;;;;;;;15.57;12.38;;;16.70;99.90;;;;;;5058403;28;20036;-79
2022/05/02 06:07:42;;;;;;;13.48;12.27;;;16.10;99.90;;;;;;5054119;28;20021;-78
2022/05/02 06:10:09;;;;;;;15.93;14.32;;;15.10;99.90;;;;;;5058691;28;20087;-80
2022/05/02 06:12:37;;;;;;;16.02;14.32;;;14.30;99.90;;;;;;5054742;28;20028;-79
2022/05/02 06:20:38;;;;;;;16.25;14.52;;;13.50;99.90;;;;;;5053391;28;20032;-79
2022/05/02 06:23:09;;;;;;;16.20;14.50;;;13.50;99.90;;;;;;5052269;28;20095;-79
2022/05/02 06:25:37;;;;;;;16.10;14.60;;;14.20;99.90;;;;;;5055003;28;20040;-80
2022/05/02 06:28:05;;;;;;;18.75;16.15;;;14.30;99.90;;;;;;5056358;28;20062;-78
2022/05/02 06:30:33;;;;;;;17.15;15.25;;;14.60;99.90;;;;;;5060527;28;20021;-79
2022/05/02 06:33:04;;;;;;;18.00;16.00;;;14.40;99.90;;;;;;5054283;28;20040;-80
2022/05/02 06:35:40;;;;;;;18.65;16.70;;;13.80;99.90;;;;;;5050225;28;20477;-79
2022/05/02 06:38:17;;;;;;;16.75;15.02;;;13.80;99.90;;;;;;5056920;28;20025;-79
2022/05/02 06:41:01;;;;;;;20.00;16.60;;;14.20;99.90;;;;;;5061397;28;20021;-80
2022/05/02 06:43:38;;;;;;;20.50;15.77;;;14.60;99.90;;;;;;5055556;28;20412;-78
2022/05/02 06:46:20;;;;;;;15.88;14.27;;;14.60;99.90;;;;;;5069295;28;20055;-78
2022/05/02 06:48:53;;;;;;;17.70;15.85;;;14.70;99.90;;;;;;5065766;28;20047;-79
2022/05/02 06:51:24;;;;;;;16.73;15.23;;;14.60;99.90;;;;;;5080549;28;20702;-79
2022/05/02 06:54:10;;;;;;;17.42;15.57;;;14.40;99.90;;;;;;5059946;28;20131;-80
2022/05/02 06:56:48;;;;;;;20.48;15.73;;;14.10;99.90;;;;;;5059574;28;20081;-78
2022/05/02 06:59:14;;;;;;;17.25;15.40;;;14.00;99.90;;;;;;5060906;28;20029;-78
2022/05/02 07:02:08;;;;;;;17.65;15.85;;;14.40;99.90;;;;;;5071646;28;20025;-79
2022/05/02 07:04:54;;;;;;;18.25;16.33;;;15.20;99.90;;;;;;5053518;28;20021;-78
2022/05/02 07:07:23;;;;;;;17.00;15.23;;;15.40;99.90;;;;;;5058509;28;20458;-77
2022/05/02 07:09:56;;;;;;;17.08;15.55;;;15.70;99.90;;;;;;5061651;28;20035;-79
2022/05/02 07:12:25;;;;;;;16.95;15.25;;;15.50;99.90;;;;;;5054913;28;20021;-79
2022/05/02 07:15:05;;;;;;;16.75;15.13;;;15.30;99.90;;;;;;5058111;28;20021;-80
2022/05/02 07:17:42;;;;;;;18.90;17.05;;;15.20;99.90;;;;;;5048563;28;20025;-77
2022/05/02 07:20:27;;;;;;;17.42;15.82;;;15.80;99.90;;;;;;5061097;28;20455;-78
2022/05/02 07:23:05;;;;;;;17.15;15.55;;;15.30;99.90;;;;;;5074007;28;20064;-78
2022/05/02 07:25:35;;;;;;;19.15;17.10;;;15.60;99.90;;;;;;5076059;28;20025;-78
2022/05/02 07:28:25;;;;;;;18.95;15.25;;;15.90;99.90;;;;;;5066587;28;20040;-80
2022/05/02 07:30:55;;;;;;;19.20;16.73;;;15.80;99.90;;;;;;5074300;28;20032;-78
2022/05/02 07:33:21;;;;;;;17.83;16.10;;;15.40;99.90;;;;;;5064860;28;20035;-78
2022/05/02 07:35:49;;;;;;;17.85;15.98;;;15.60;99.90;;;;;;5061210;28;20473;-79
2022/05/02 07:38:18;;;;;;;19.38;16.52;;;16.00;99.90;;;;;;5063254;28;20024;-78
2022/05/02 07:41:22;;;;;;;17.27;15.57;;;15.60;99.90;;;;;;5060123;28;20020;-79
2022/05/02 07:43:33;;;;;;;18.08;16.38;;;15.90;99.90;;;;;;5063490;28;20178;-78
2022/05/02 07:46:05;;;;;;;19.20;16.08;;;16.10;99.90;;;;;;5057688;28;20021;-78
2022/05/02 07:48:32;;;;;;;18.05;16.15;;;16.30;99.90;;;;;;5056602;28;20435;-78
2022/05/02 07:50:59;;;;;;;19.17;17.10;;;15.70;99.90;;;;;;5058190;28;20013;-78
2022/05/02 07:53:26;;;;;;;17.38;15.43;;;15.60;99.90;;;;;;5052347;28;20013;-79
2022/05/02 07:55:54;;;;;;;16.52;15.00;;;15.60;99.90;;;;;;5060622;28;20069;-77
2022/05/02 07:58:24;;;;;;;21.15;16.42;;;15.70;99.90;;;;;;5077824;28;20045;-77
2022/05/02 08:00:52;;;;;;;17.20;15.55;;;16.00;99.90;;;;;;5070790;28;20055;-79
2022/05/02 08:03:21;;;;;;;18.50;16.48;;;16.10;99.90;;;;;;5068297;28;20029;-80
2022/05/02 08:05:53;;;;;;;17.08;15.30;;;16.00;99.90;;;;;;5069683;28;20017;-78
2022/05/02 08:08:50;;;;;;;17.88;16.08;;;16.40;99.90;;;;;;5062625;28;20443;-77
2022/05/02 08:11:27;;;;;;;15.95;14.43;;;16.20;99.90;;;;;;5066565;28;20458;-78
2022/05/02 08:14:16;;;;;;;18.17;16.40;;;16.40;99.90;;;;;;5065732;28;20013;-78
2022/05/02 08:17:13;;;;;;;17.73;16.02;;;16.80;99.90;;;;;;5059201;28;20517;-77
2022/05/02 08:20:08;;;;;;;16.55;15.07;;;16.50;99.90;;;;;;5058083;28;20029;-77
2022/05/02 08:29:01;;;;;;;17.33;15.52;;;16.50;99.90;;;;;;5058317;28;20036;-75
2022/05/02 08:31:55;;;;;;;17.52;15.73;;;16.90;99.90;;;;;;5058247;28;20100;-77
2022/05/02 08:34:38;;;;;;;17.38;15.68;;;17.20;99.90;;;;;;5067679;28;20033;-76
2022/05/02 08:37:34;;;;;;;16.55;15.02;;;17.10;99.90;;;;;;5060188;28;20572;-75
2022/05/02 08:40:10;;;;;;;18.73;15.90;;;17.10;99.90;;;;;;5060569;28;20044;-75
2022/05/02 08:42:49;;;;;;;18.10;15.05;;;17.00;99.90;;;;;;5059678;28;20025;-75
2022/05/02 08:45:27;;;;;;;15.25;13.52;;;17.30;99.90;;;;;;5057398;28;20083;-75
2022/05/02 08:48:20;;;;;;;15.50;13.90;;;17.80;99.90;;;;;;5058124;28;20029;-76
2022/05/02 08:50:59;;;;;;;13.95;12.70;;;17.70;99.90;;;;;;5063248;28;20070;-76
2022/05/02 08:53:58;;;;;;;18.17;14.38;;;17.70;99.90;;;;;;5064184;28;20350;-75
2022/05/02 08:56:49;;;;;;;14.65;13.18;;;17.60;99.90;;;;;;5049148;28;20009;-76
2022/05/02 08:59:53;;;;;;;13.10;11.95;;;17.70;99.90;;;;;;5057707;28;20373;-77
2022/05/02 09:02:42;;;;;;;13.88;12.68;;;17.90;99.90;;;;;;5063593;28;20045;-74
2022/05/02 09:05:40;;;;;;;16.90;13.57;;;18.40;99.90;;;;;;5056821;28;20017;-76
2022/05/02 09:08:45;;;;;;;14.85;13.35;;;18.50;99.90;;;;;;5057348;28;20047;-76
2022/05/02 09:11:32;;;;;;;14.65;13.25;;;17.80;99.90;;;;;;5039077;28;20045;-77
2022/05/02 09:14:19;;;;;;;14.82;13.00;;;17.60;99.90;;;;;;5060491;28;20042;-78
2022/05/02 09:17:02;;;;;;;15.13;13.60;;;17.80;99.90;;;;;;5064238;28;20029;-75
2022/05/02 09:19:38;;;;;;;14.82;13.52;;;18.10;99.90;;;;;;5058914;28;20533;-74
2022/05/02 09:22:28;;;;;;;14.90;13.50;;;18.20;99.90;;;;;;5058487;28;20017;-75
2022/05/02 09:25:06;;;;;;;11.43;10.32;;;18.20;99.90;;;;;;5056881;28;20024;-76
2022/05/02 09:28:01;;;;;;;13.35;10.32;;;18.20;99.90;;;;;;5057612;28;20261;-76
2022/05/02 09:31:03;;;;;;;13.35;12.15;;;18.30;99.90;;;;;;5058315;28;20481;-75
2022/05/02 09:33:41;;;;;;;12.10;10.98;;;18.60;99.90;;;;;;5079312;28;20117;-75
2022/05/02 09:36:28;;;;;;;11.95;10.65;;;19.00;99.90;;;;;;5079764;28;20012;-77
2022/05/02 09:38:58;;;;;;;10.05;9.05;;;18.90;99.90;;;;;;5079028;28;20005;-76
2022/05/02 09:42:04;;;;;;;11.30;8.32;;;19.20;99.60;;;;;;5077812;28;20098;-75
2022/05/02 09:51:40;;;;;;;7.45;6.75;;;19.60;97.80;;;;;;5063424;28;20052;-76
2022/05/02 09:58:05;;;;;;;9.57;7.05;;;19.70;98.20;;;;;;5066529;28;20075;-74
2022/05/02 10:01:06;;;;;;;8.25;7.63;;;20.20;96.90;;;;;;5059315;28;20036;-76
2022/05/02 10:04:01;;;;;;;7.97;7.15;;;19.90;96.80;;;;;;5054091;28;21111;-78
2022/05/02 10:06:32;;;;;;;8.98;7.53;;;20.40;96.80;;;;;;5044380;28;20389;-73
2022/05/02 10:09:28;;;;;;;8.32;7.55;;;19.90;96.90;;;;;;5064724;28;20029;-79
2022/05/02 10:12:21;;;;;;;8.73;7.93;;;19.70;97.00;;;;;;5068224;28;20657;-78
2022/05/02 10:15:04;;;;;;;8.10;7.35;;;20.20;97.20;;;;;;5061055;28;20024;-78
2022/05/02 10:17:40;;;;;;;9.98;7.60;;;20.50;97.10;;;;;;5048539;28;20093;-77
2022/05/02 10:20:16;;;;;;;7.82;7.13;;;20.60;96.10;;;;;;5057371;28;20021;-77
2022/05/02 10:22:47;;;;;;;7.88;7.18;;;20.50;96.00;;;;;;5070179;28;20039;-76
2022/05/02 10:25:39;;;;;;;7.43;6.72;;;21.10;94.50;;;;;;5059100;28;20044;-77
2022/05/02 10:28:23;;;;;;;6.80;6.25;;;20.60;95.30;;;;;;5082812;28;20029;-77
2022/05/02 10:30:50;;;;;;;7.28;6.60;;;20.40;95.70;;;;;;5057032;28;20029;-77
2022/05/02 10:33:31;;;;;;;7.00;6.28;;;20.50;95.10;;;;;;5058919;28;20028;-78
2022/05/02 10:35:58;;;;;;;8.43;6.13;;;20.40;94.10;;;;;;5059102;28;20032;-77
2022/05/02 10:38:29;;;;;;;7.03;6.43;;;20.60;94.10;;;;;;5049717;28;20431;-78
2022/05/02 10:41:06;;;;;;;;;;;19.80;95.20;;;;;;5054744;28;20511;-78
2022/05/02 10:43:35;;;;;;;5.72;5.22;;;19.80;95.30;;;;;;5045988;28;20433;-77
2022/05/02 10:46:02;;;;;;;5.45;4.82;;;20.50;93.00;;;;;;5055350;28;20021;-76
2022/05/02 10:48:40;;;;;;;4.63;4.22;;;20.60;91.90;;;;;;5051035;28;20378;-77
2022/05/02 10:51:32;;;;;;;4.35;3.95;;;20.20;92.40;;;;;;5053130;28;20021;-77
2022/05/02 10:54:27;;;;;;;5.03;3.63;;;20.20;92.40;;;;;;5052840;28;20178;-77
2022/05/02 10:57:00;;;;;;;4.93;4.53;;;20.80;91.20;;;;;;5050922;28;20047;-77
2022/05/02 10:59:31;;;;;;;4.75;4.35;;;21.10;90.10;;;;;;5051974;28;20100;-78
2022/05/02 11:02:18;;;;;;;4.85;4.45;;;20.70;90.50;;;;;;5059636;28;20051;-78
2022/05/02 11:05:01;;;;;;;5.68;5.22;;;20.50;90.50;;;;;;5071462;28;20033;-79
2022/05/02 11:07:33;;;;;;;5.20;4.80;;;20.50;90.50;;;;;;5064643;28;20079;-79
2022/05/02 11:10:07;;;;;;;5.38;4.97;;;20.70;90.80;;;;;;5051175;28;20128;-78
2022/05/02 11:12:41;;;;;;;5.43;5.03;;;20.80;90.10;;;;;;5053026;28;20048;-78
2022/05/02 11:15:08;;;;;;;5.18;4.70;;;20.70;90.50;;;;;;5054709;28;20028;-78
2022/05/02 11:17:39;;;;;;;6.18;4.55;;;20.50;90.40;;;;;;5054358;28;20621;-78
2022/05/02 11:23:21;;;;;;;8.20;5.03;;;20.60;90.10;;;;;;5042745;28;20035;-77
2022/05/02 11:26:11;;;;;;;5.65;5.15;;;20.90;89.90;;;;;;5055002;28;20021;-78
2022/05/02 11:29:01;;;;;;;6.28;5.78;;;20.70;90.70;;;;;;5059026;28;20021;-77
2022/05/02 11:31:39;;;;;;;5.57;4.97;;;20.30;91.20;;;;;;5050098;28;20108;-78
2022/05/02 11:34:07;;;;;;;5.93;5.40;;;20.50;91.30;;;;;;5052607;28;20360;-78
2022/05/02 11:36:40;;;;;;;6.18;5.68;;;20.80;91.00;;;;;;5051584;28;20016;-77
2022/05/02 11:39:08;;;;;;;5.72;5.25;;;21.10;90.80;;;;;;5053736;28;20029;-78
2022/05/02 11:41:42;;;;;;;6.00;5.40;;;21.30;90.50;;;;;;5053045;28;20086;-78
2022/05/02 11:44:13;;;;;;;6.45;5.85;;;21.20;90.10;;;;;;5050530;28;20063;-79
2022/05/02 11:46:50;;;;;;;;;;;20.60;90.70;;;;;;5047553;28;20456;-79
2022/05/02 11:49:29;;;;;;;8.85;5.40;;;20.00;90.60;;;;;;5062840;28;19958;-78
2022/05/02 11:51:58;;;;;;;5.82;5.13;;;19.80;91.20;;;;;;5054875;28;20063;-77
2022/05/02 11:54:27;;;;;;;5.53;4.80;;;19.80;91.40;;;;;;5050415;28;20021;-78
2022/05/02 11:57:03;;;;;;;4.80;4.30;;;19.80;91.50;;;;;;5057782;28;20092;-79
2022/05/02 11:59:58;;;;;;;4.30;4.00;;;20.30;90.60;;;;;;5048452;28;20025;-79
2022/05/02 12:02:45;;;;;;;4.70;4.30;;;20.80;90.10;;;;;;5050774;28;20075;-77
2022/05/02 12:05:33;;;;;;;4.55;4.15;;;21.00;87.90;;;;;;5063708;28;20079;-78
2022/05/02 12:08:02;;;;;;;4.95;4.32;;;21.00;89.50;;;;;;5061168;28;20051;-77
2022/05/02 12:10:43;;;;;;;4.78;4.38;;;21.30;90.00;;;;;;5052619;28;20531;-78
2022/05/02 12:13:12;;;;;;;4.75;4.30;;;21.60;88.20;;;;;;5051563;28;20018;-78
2022/05/02 12:15:53;;;;;;;5.35;4.93;;;21.80;88.80;;;;;;5051975;28;20033;-78
2022/05/02 12:18:18;;;;;;;5.05;4.65;;;21.90;87.60;;;;;;5067922;28;20071;-78
2022/05/02 12:20:58;;;;;;;4.95;4.55;;;22.20;88.60;;;;;;5053319;28;20477;-78
2022/05/02 12:23:33;;;;;;;4.72;3.40;;;21.90;86.70;;;;;;5051431;28;20017;-79
2022/05/02 12:26:03;;;;;;;3.65;3.35;;;21.20;87.30;;;;;;5065806;28;20070;-77
2022/05/02 12:28:49;;;;;;;4.60;2.97;;;21.70;85.40;;;;;;5056817;28;20025;-79
2022/05/02 12:31:20;;;;;;;6.35;3.95;;;21.50;85.40;;;;;;5053347;28;20023;-78
2022/05/02 12:33:50;;;;;;;3.40;3.10;;;22.00;85.30;;;;;;5052134;28;20053;-78
2022/05/02 12:36:20;;;;;;;4.15;3.85;;;22.90;84.40;;;;;;5052812;28;20021;-78
2022/05/02 12:39:28;;;;;;;5.33;4.77;;;23.20;83.00;;;;;;5053304;28;20437;-78
2022/05/02 12:42:08;;;;;;;4.43;3.38;;;22.40;84.20;;;;;;5048806;28;20323;-77
2022/05/02 12:44:44;;;;;;;4.13;3.45;;;22.50;82.70;;;;;;5050788;28;20028;-79
2022/05/02 12:47:20;;;;;;;4.38;4.05;;;22.20;81.90;;;;;;5053248;28;20032;-78
2022/05/02 12:50:04;;;;;;;3.80;3.50;;;22.10;82.80;;;;;;5050537;28;20033;-78
2022/05/02 12:52:32;;;;;;;4.10;3.63;;;21.40;84.10;;;;;;5049229;28;20017;-78
2022/05/02 12:54:58;;;;;;;3.60;3.20;;;22.20;84.00;;;;;;5053196;28;20052;-78
2022/05/02 13:00:48;;;;;;;3.35;3.00;;;22.50;81.50;;;;;;5052928;28;20095;-78
2022/05/02 13:03:16;;;;;;;3.80;2.67;;;22.30;81.20;;;;;;5053571;28;20104;-78
2022/05/02 13:05:45;;;;;;;3.20;2.80;;;21.80;83.40;;;;;;5070717;28;20113;-77
2022/05/02 13:08:13;;;;;;;2.78;2.58;;;22.30;82.00;;;;;;5059503;28;20056;-77
2022/05/02 13:10:42;;;;;;;3.42;2.72;;;22.80;80.00;;;;;;5057445;28;20020;-78
2022/05/02 13:13:10;;;;;;;3.20;2.67;;;23.00;78.90;;;;;;5058298;28;20013;-79
2022/05/02 13:15:41;;;;;;;2.70;2.30;;;23.00;76.10;;;;;;5055675;28;20385;-78
2022/05/02 13:18:15;;;;;;;3.45;3.20;;;22.50;78.30;;;;;;5054961;28;20017;-77
2022/05/02 13:20:48;;;;;;;3.30;2.70;;;22.40;79.20;;;;;;5057149;28;20025;-78
2022/05/02 13:23:14;;;;;;;4.25;3.75;;;22.20;80.10;;;;;;5055263;28;20350;-79
2022/05/02 13:26:02;;;;;;;2.60;2.40;;;21.70;81.20;;;;;;5055542;28;20112;-77
2022/05/02 13:28:40;;;;;;;3.10;2.90;;;21.50;81.60;;;;;;5056574;28;20044;-78
2022/05/02 13:31:25;;;;;;;3.05;2.75;;;21.80;82.10;;;;;;5054834;28;20028;-77
2022/05/02 13:33:53;;;;;;;4.28;2.90;;;21.80;82.30;;;;;;5061241;28;20025;-79
2022/05/02 13:36:21;;;;;;;6.22;3.00;;;21.80;82.30;;;;;;5056751;28;20057;-78
2022/05/02 13:39:10;;;;;;;2.83;2.63;;;22.10;82.60;;;;;;5063100;28;20021;-82
2022/05/02 13:41:57;;;;;;;3.00;2.75;;;22.50;80.20;;;;;;5050599;28;20013;-79
2022/05/02 13:44:34;;;;;;;2.60;2.25;;;22.50;78.50;;;;;;5054575;28;20055;-79
2022/05/02 13:47:11;;;;;;;2.90;2.70;;;21.90;80.90;;;;;;5057884;28;20024;-79